createdAt,value
2023-12-28T00:00:14.849Z,95613.00
2023-12-28T00:01:14.661Z,95611.00
2023-12-28T00:02:14.522Z,95612.00
2023-12-28T00:03:14.421Z,95613.00
2023-12-28T00:04:14.213Z,95613.00
2023-12-28T00:05:13.995Z,95612.00
2023-12-28T00:06:13.822Z,95612.00
2023-12-28T00:56:28.165Z,95630.00
2023-12-28T00:57:05.268Z,95632.00
2023-12-28T00:58:05.126Z,95633.00
2023-12-28T00:59:04.931Z,95633.00
2023-12-28T01:00:04.778Z,95638.00
2023-12-28T01:01:04.779Z,95637.00
2023-12-28T01:02:04.401Z,95642.00
2023-12-28T01:03:04.332Z,95642.00
2023-12-28T01:04:04.212Z,95648.00
2023-12-28T01:05:03.907Z,95646.00
2023-12-28T01:06:03.764Z,95649.00
2023-12-28T01:07:03.681Z,95650.00
2023-12-28T01:08:03.513Z,95651.00
2023-12-28T01:09:03.234Z,95650.00
2023-12-28T01:10:03.069Z,95650.00
2023-12-28T01:11:02.919Z,95649.00
2023-12-28T01:12:02.741Z,95648.00
2023-12-28T01:13:02.558Z,95648.00
2023-12-28T01:14:02.377Z,95649.00
2023-12-28T01:15:01.220Z,95650.00
2023-12-28T01:16:02.111Z,95653.00
2023-12-28T01:17:01.861Z,95654.00
2023-12-28T01:18:01.031Z,95657.00
2023-12-28T01:19:01.695Z,95662.00
2023-12-28T01:20:01.477Z,95662.00
2023-12-28T01:21:01.194Z,95664.00
2023-12-28T01:22:01.018Z,95663.00
2023-12-28T01:23:00.863Z,95665.00
2023-12-28T01:24:00.707Z,95666.00
2023-12-28T01:25:00.525Z,95667.00
2023-12-28T01:26:00.340Z,95668.00
2023-12-28T01:27:00.511Z,95669.00
2023-12-28T01:28:00.353Z,95672.00
2023-12-28T01:28:59.854Z,95671.00
2023-12-28T01:29:59.668Z,95673.00
2023-12-28T01:30:59.598Z,95675.00
2023-12-28T01:31:59.321Z,95674.00
2023-12-28T01:32:59.196Z,95675.00
2023-12-28T01:33:59.085Z,95672.00
2023-12-28T01:34:59.147Z,95674.00
2023-12-28T01:35:58.650Z,95675.00
2023-12-28T01:36:58.521Z,95673.00
2023-12-28T01:37:58.598Z,95672.00
2023-12-28T01:38:58.151Z,95669.00
2023-12-28T01:39:58.046Z,95670.00
2023-12-28T01:40:57.819Z,95670.00
2023-12-28T01:41:57.648Z,95670.00
2023-12-28T01:42:57.568Z,95670.00
2023-12-28T01:43:57.351Z,95669.00
2023-12-28T01:44:57.134Z,95668.00
2023-12-28T01:45:57.015Z,95667.00
2023-12-28T01:46:56.793Z,95662.00
2023-12-28T01:47:57.088Z,95665.00
2023-12-28T01:48:56.556Z,95667.00
2023-12-28T01:49:55.406Z,95667.00
2023-12-28T01:50:56.136Z,95666.00
2023-12-28T01:51:55.095Z,95665.00
2023-12-28T01:52:56.417Z,95666.00
2023-12-28T01:53:55.641Z,95667.00
2023-12-28T01:54:54.490Z,95670.00
2023-12-28T01:55:55.305Z,95674.00
2023-12-28T01:56:55.131Z,95683.00
2023-12-28T01:57:55.128Z,95687.00
2023-12-28T01:58:54.791Z,95688.00
2023-12-28T01:59:54.646Z,95688.00
2023-12-28T02:00:54.513Z,95687.00
2023-12-28T02:01:54.293Z,95686.00
2023-12-28T02:02:54.730Z,95683.00
2023-12-28T02:03:53.089Z,95682.00
2023-12-28T02:04:53.779Z,95677.00
2023-12-28T02:05:52.641Z,95674.00
2023-12-28T02:06:53.468Z,95673.00
2023-12-28T02:07:53.267Z,95672.00
2023-12-28T02:08:52.111Z,95670.00
2023-12-28T02:09:52.983Z,95668.00
2023-12-28T02:10:52.751Z,95667.00
2023-12-28T02:11:51.578Z,95668.00
2023-12-28T02:12:53.258Z,95670.00
2023-12-28T02:13:52.288Z,95672.00
2023-12-28T02:14:52.080Z,95673.00
2023-12-28T02:15:52.052Z,95674.00
2023-12-28T02:16:51.725Z,95675.00
2023-12-28T02:17:51.581Z,95673.00
2023-12-28T02:18:51.441Z,95674.00
2023-12-28T02:19:51.234Z,95673.00
2023-12-28T02:20:51.065Z,95672.00
2023-12-28T02:21:50.960Z,95672.00
2023-12-28T02:22:50.731Z,95671.00
2023-12-28T02:23:50.568Z,95669.00
2023-12-28T02:24:50.453Z,95669.00
2023-12-28T02:25:50.214Z,95668.00
2023-12-28T02:26:50.056Z,95663.00
2023-12-28T02:27:50.079Z,95665.00
2023-12-28T02:28:49.719Z,95661.00
2023-12-28T02:29:49.543Z,95660.00
2023-12-28T02:30:49.488Z,95659.00
2023-12-28T02:31:49.277Z,95656.00
2023-12-28T02:32:49.153Z,95653.00
2023-12-28T02:33:49.063Z,95654.00
2023-12-28T02:34:47.731Z,95656.00
2023-12-28T02:35:48.543Z,95657.00
2023-12-28T02:36:48.465Z,95657.00
2023-12-28T02:37:48.217Z,95658.00
2023-12-28T02:38:48.056Z,95657.00
2023-12-28T02:39:46.888Z,95664.00
2023-12-28T02:40:47.720Z,95665.00
2023-12-28T02:41:47.530Z,95667.00
2023-12-28T02:42:47.420Z,95669.00
2023-12-28T02:43:47.190Z,95668.00
2023-12-28T02:44:46.018Z,95667.00
2023-12-28T02:45:46.867Z,95669.00
2023-12-28T02:46:46.690Z,95668.00
2023-12-28T02:47:46.548Z,95667.00
2023-12-28T02:48:46.561Z,95665.00
2023-12-28T02:49:46.321Z,95667.00
2023-12-28T02:50:45.985Z,95665.00
2023-12-28T02:51:46.131Z,95663.00
2023-12-28T02:52:45.876Z,95661.00
2023-12-28T02:53:45.707Z,95662.00
2023-12-28T02:54:45.589Z,95660.00
2023-12-28T02:55:45.373Z,95662.00
2023-12-28T02:56:45.208Z,95663.00
2023-12-28T02:57:44.065Z,95663.00
2023-12-28T02:58:44.875Z,95665.00
2023-12-28T02:59:44.703Z,95664.00
2023-12-28T03:00:44.625Z,95665.00
2023-12-28T03:01:43.403Z,95668.00
2023-12-28T03:02:45.216Z,95667.00
2023-12-28T03:03:44.142Z,95669.00
2023-12-28T03:04:43.034Z,95668.00
2023-12-28T03:05:43.910Z,95671.00
2023-12-28T03:06:43.759Z,95670.00
2023-12-28T03:07:43.569Z,95670.00
2023-12-28T03:08:43.343Z,95672.00
2023-12-28T03:09:43.234Z,95672.00
2023-12-28T03:10:42.077Z,95673.00
2023-12-28T03:11:42.829Z,95678.00
2023-12-28T03:12:42.732Z,95681.00
2023-12-28T03:13:42.498Z,95686.00
2023-12-28T03:14:42.319Z,95686.00
2023-12-28T03:15:42.250Z,95687.00
2023-12-28T03:16:41.970Z,95690.00
2023-12-28T03:17:42.081Z,95689.00
2023-12-28T03:18:41.778Z,95687.00
2023-12-28T03:19:41.617Z,95689.00
2023-12-28T03:20:41.277Z,95685.00
2023-12-28T03:21:41.164Z,95683.00
2023-12-28T03:22:40.938Z,95683.00
2023-12-28T03:23:40.782Z,95680.00
2023-12-28T03:24:40.615Z,95677.00
2023-12-28T03:25:41.239Z,95676.00
2023-12-28T03:26:39.481Z,95677.00
2023-12-28T03:27:40.329Z,95672.00
2023-12-28T03:28:40.243Z,95668.00
2023-12-28T03:29:39.964Z,95670.00
2023-12-28T03:30:39.941Z,95668.00
2023-12-28T03:31:39.747Z,95669.00
2023-12-28T03:32:39.471Z,95671.00
2023-12-28T03:33:39.320Z,95672.00
2023-12-28T03:34:39.200Z,95673.00
2023-12-28T03:35:38.952Z,95671.00
2023-12-28T03:36:38.797Z,95672.00
2023-12-28T03:37:38.595Z,95672.00
2023-12-28T03:38:38.439Z,95673.00
2023-12-28T03:39:38.316Z,95673.00
2023-12-28T03:40:38.094Z,95672.00
2023-12-28T03:41:36.924Z,95673.00
2023-12-28T03:42:37.798Z,95675.00
2023-12-28T03:43:37.600Z,95673.00
2023-12-28T03:44:37.441Z,95675.00
2023-12-28T03:45:37.291Z,95677.00
2023-12-28T03:46:37.091Z,95678.00
2023-12-28T03:47:36.959Z,95676.00
2023-12-28T03:48:36.868Z,95675.00
2023-12-28T03:49:36.700Z,95674.00
2023-12-28T03:50:36.428Z,95672.00
2023-12-28T03:51:36.310Z,95671.00
2023-12-28T03:52:36.109Z,95671.00
2023-12-28T03:53:35.928Z,95672.00
2023-12-28T03:54:35.801Z,95675.00
2023-12-28T03:55:35.603Z,95674.00
2023-12-28T03:56:35.436Z,95677.00
2023-12-28T03:57:35.336Z,95676.00
2023-12-28T03:58:35.121Z,95681.00
2023-12-28T03:59:34.961Z,95684.00
2023-12-28T04:00:34.814Z,95684.00
2023-12-28T04:01:34.644Z,95685.00
2023-12-28T04:02:34.421Z,95682.00
2023-12-28T04:03:34.423Z,95685.00
2023-12-28T04:04:34.171Z,95684.00
2023-12-28T04:05:33.982Z,95685.00
2023-12-28T04:06:34.814Z,95686.00
2023-12-28T04:07:33.625Z,95689.00
2023-12-28T04:08:33.561Z,95686.00
2023-12-28T04:09:33.297Z,95687.00
2023-12-28T04:10:33.306Z,95690.00
2023-12-28T04:11:32.934Z,95690.00
2023-12-28T04:12:32.830Z,95689.00
2023-12-28T04:13:32.592Z,95689.00
2023-12-28T04:14:32.424Z,95691.00
2023-12-28T04:15:31.341Z,95690.00
2023-12-28T04:16:32.085Z,95691.00
2023-12-28T04:17:31.936Z,95690.00
2023-12-28T04:18:31.899Z,95693.00
2023-12-28T04:19:31.627Z,95694.00
2023-12-28T04:20:31.411Z,95694.00
2023-12-28T04:21:31.272Z,95692.00
2023-12-28T04:22:31.094Z,95693.00
2023-12-28T04:23:30.933Z,95692.00
2023-12-28T04:24:30.770Z,95690.00
2023-12-28T04:25:30.604Z,95686.00
2023-12-28T04:26:30.412Z,95687.00
2023-12-28T04:27:30.253Z,95687.00
2023-12-28T04:28:30.102Z,95686.00
2023-12-28T04:29:30.054Z,95685.00
2023-12-28T04:30:29.784Z,95683.00
2023-12-28T04:31:29.635Z,95685.00
2023-12-28T04:32:29.405Z,95685.00
2023-12-28T04:33:29.447Z,95687.00
2023-12-28T04:34:29.085Z,95688.00
2023-12-28T04:35:28.888Z,95690.00
2023-12-28T04:36:28.737Z,95694.00
2023-12-28T04:37:28.557Z,95694.00
2023-12-28T04:38:28.378Z,95696.00
2023-12-28T04:39:28.260Z,95698.00
2023-12-28T04:40:28.059Z,95696.00
2023-12-28T04:41:27.870Z,95697.00
2023-12-28T04:42:27.749Z,95696.00
2023-12-28T04:43:27.548Z,95699.00
2023-12-28T04:44:27.371Z,95701.00
2023-12-28T04:45:27.232Z,95702.00
2023-12-28T04:46:27.016Z,95706.00
2023-12-28T04:47:26.882Z,95707.00
2023-12-28T04:48:26.937Z,95708.00
2023-12-28T04:49:26.586Z,95707.00
2023-12-28T04:50:26.351Z,95707.00
2023-12-28T04:51:26.230Z,95706.00
2023-12-28T04:52:26.010Z,95704.00
2023-12-28T04:53:25.837Z,95704.00
2023-12-28T04:54:25.678Z,95706.00
2023-12-28T04:55:25.507Z,95706.00
2023-12-28T04:56:25.315Z,95707.00
2023-12-28T04:57:25.170Z,95706.00
2023-12-28T04:58:24.999Z,95710.00
2023-12-28T04:59:24.823Z,95709.00
2023-12-28T05:00:24.669Z,95714.00
2023-12-28T05:01:24.592Z,95716.00
2023-12-28T05:02:24.312Z,95715.00
2023-12-28T05:03:24.246Z,95716.00
2023-12-28T05:04:24.065Z,95718.00
2023-12-28T05:05:23.863Z,95716.00
2023-12-28T05:06:23.758Z,95718.00
2023-12-28T05:07:22.483Z,95719.00
2023-12-28T05:08:23.316Z,95722.00
2023-12-28T05:09:24.194Z,95725.00
2023-12-28T05:10:21.980Z,95726.00
2023-12-28T05:11:22.834Z,95726.00
2023-12-28T05:12:22.812Z,95727.00
2023-12-28T05:13:21.551Z,95726.00
2023-12-28T05:14:22.296Z,95725.00
2023-12-28T05:15:22.187Z,95729.00
2023-12-28T05:16:21.981Z,95729.00
2023-12-28T05:17:21.846Z,95727.00
2023-12-28T05:18:21.790Z,95725.00
2023-12-28T05:19:21.574Z,95725.00
2023-12-28T05:20:21.346Z,95722.00
2023-12-28T05:21:21.166Z,95723.00
2023-12-28T05:22:21.002Z,95724.00
2023-12-28T05:23:19.824Z,95725.00
2023-12-28T05:24:19.716Z,95727.00
2023-12-28T05:25:20.486Z,95731.00
2023-12-28T05:26:20.307Z,95730.00
2023-12-28T05:27:20.213Z,95732.00
2023-12-28T05:28:20.016Z,95729.00
2023-12-28T05:29:19.819Z,95731.00
2023-12-28T05:30:19.814Z,95730.00
2023-12-28T05:31:19.546Z,95732.00
2023-12-28T05:32:20.362Z,95729.00
2023-12-28T05:33:19.222Z,95731.00
2023-12-28T05:34:19.068Z,95732.00
2023-12-28T05:35:18.817Z,95731.00
2023-12-28T05:36:18.667Z,95732.00
2023-12-28T05:37:18.477Z,95736.00
2023-12-28T05:38:18.346Z,95737.00
2023-12-28T05:39:18.202Z,95733.00
2023-12-28T05:40:17.985Z,95733.00
2023-12-28T05:41:17.812Z,95734.00
2023-12-28T05:42:17.691Z,95734.00
2023-12-28T05:43:17.504Z,95736.00
2023-12-28T05:44:17.307Z,95738.00
2023-12-28T05:45:17.231Z,95738.00
2023-12-28T05:46:16.975Z,95738.00
2023-12-28T05:47:16.798Z,95739.00
2023-12-28T05:48:16.856Z,95736.00
2023-12-28T05:49:16.683Z,95735.00
2023-12-28T05:50:16.338Z,95734.00
2023-12-28T05:51:16.177Z,95736.00
2023-12-28T05:52:16.043Z,95737.00
2023-12-28T05:53:15.822Z,95739.00
2023-12-28T05:54:15.705Z,95741.00
2023-12-28T05:55:15.504Z,95745.00
2023-12-28T05:56:15.339Z,95746.00
2023-12-28T05:57:15.219Z,95747.00
2023-12-28T05:58:15.004Z,95750.00
2023-12-28T05:59:16.359Z,95748.00
2023-12-28T06:00:15.808Z,95748.00
2023-12-28T06:01:14.644Z,95748.00
2023-12-28T06:02:14.340Z,95747.00
2023-12-28T06:03:13.202Z,95749.00
2023-12-28T06:04:14.166Z,95746.00
2023-12-28T06:05:14.903Z,95746.00
2023-12-28T06:06:13.692Z,95745.00
2023-12-28T06:07:13.513Z,95744.00
2023-12-28T06:08:13.364Z,95744.00
2023-12-28T06:09:12.222Z,95742.00
2023-12-28T06:10:13.071Z,95743.00
2023-12-28T06:11:12.870Z,95742.00
2023-12-28T06:12:12.701Z,95743.00
2023-12-28T06:13:12.527Z,95743.00
2023-12-28T06:14:12.372Z,95740.00
2023-12-28T06:15:12.274Z,95741.00
2023-12-28T06:16:12.186Z,95743.00
2023-12-28T06:17:11.940Z,95743.00
2023-12-28T06:18:11.849Z,95744.00
2023-12-28T06:19:11.684Z,95741.00
2023-12-28T06:20:10.485Z,95744.00
2023-12-28T06:21:11.248Z,95741.00
2023-12-28T06:22:11.053Z,95742.00
2023-12-28T06:23:09.900Z,95739.00
2023-12-28T06:24:10.706Z,95741.00
2023-12-28T06:25:10.555Z,95742.00
2023-12-28T06:26:09.379Z,95739.00
2023-12-28T06:27:10.216Z,95739.00
2023-12-28T06:28:10.088Z,95740.00
2023-12-28T06:29:09.994Z,95737.00
2023-12-28T06:30:10.135Z,95738.00
2023-12-28T06:31:09.622Z,95740.00
2023-12-28T06:32:09.376Z,95739.00
2023-12-28T06:33:09.280Z,95743.00
2023-12-28T06:34:09.507Z,95743.00
2023-12-28T06:35:08.869Z,95740.00
2023-12-28T06:36:08.716Z,95740.00
2023-12-28T06:37:08.662Z,95740.00
2023-12-28T06:38:08.365Z,95741.00
2023-12-28T06:39:08.197Z,95741.00
2023-12-28T06:40:08.056Z,95742.00
2023-12-28T06:41:07.888Z,95741.00
2023-12-28T06:42:06.726Z,95745.00
2023-12-28T06:43:07.534Z,95748.00
2023-12-28T06:44:07.376Z,95747.00
2023-12-28T06:45:07.215Z,95744.00
2023-12-28T06:46:06.048Z,95742.00
2023-12-28T06:47:06.906Z,95741.00
2023-12-28T06:48:05.790Z,95741.00
2023-12-28T06:49:07.200Z,95746.00
2023-12-28T06:50:06.611Z,95746.00
2023-12-28T06:51:06.348Z,95744.00
2023-12-28T06:52:06.212Z,95743.00
2023-12-28T06:53:05.994Z,95742.00
2023-12-28T06:54:05.834Z,95744.00
2023-12-28T06:55:05.700Z,95742.00
2023-12-28T06:56:05.532Z,95737.00
2023-12-28T06:57:05.341Z,95736.00
2023-12-28T06:58:05.309Z,95734.00
2023-12-28T06:59:05.161Z,95735.00
2023-12-28T07:00:05.296Z,95736.00
2023-12-28T07:01:04.853Z,95736.00
2023-12-28T07:02:05.452Z,95734.00
2023-12-28T07:03:04.372Z,95731.00
2023-12-28T07:04:04.230Z,95733.00
2023-12-28T07:05:04.060Z,95736.00
2023-12-28T07:06:02.831Z,95736.00
2023-12-28T07:07:03.668Z,95735.00
2023-12-28T07:08:03.503Z,95732.00
2023-12-28T07:09:03.339Z,95728.00
2023-12-28T07:10:03.152Z,95729.00
2023-12-28T07:11:02.985Z,95728.00
2023-12-28T07:12:02.824Z,95729.00
2023-12-28T07:13:02.655Z,95728.00
2023-12-28T07:14:02.515Z,95728.00
2023-12-28T07:15:02.371Z,95727.00
2023-12-28T07:16:02.408Z,95726.00
2023-12-28T07:17:02.014Z,95729.00
2023-12-28T07:18:02.150Z,95733.00
2023-12-28T07:19:01.846Z,95734.00
2023-12-28T07:20:01.577Z,95735.00
2023-12-28T07:21:01.440Z,95736.00
2023-12-28T07:22:01.242Z,95735.00
2023-12-28T07:23:01.037Z,95736.00
2023-12-28T07:24:00.868Z,95740.00
2023-12-28T07:25:00.788Z,95740.00
2023-12-28T07:26:00.543Z,95744.00
2023-12-28T07:27:00.358Z,95745.00
2023-12-28T07:28:00.429Z,95746.00
2023-12-28T07:29:00.030Z,95749.00
2023-12-28T07:29:59.863Z,95750.00
2023-12-28T07:30:59.726Z,95753.00
2023-12-28T07:31:59.512Z,95749.00
2023-12-28T07:32:59.458Z,95752.00
2023-12-28T07:33:59.337Z,95752.00
2023-12-28T07:34:59.038Z,95751.00
2023-12-28T07:35:58.885Z,95750.00
2023-12-28T07:36:59.715Z,95749.00
2023-12-28T07:37:58.802Z,95753.00
2023-12-28T07:38:58.356Z,95750.00
2023-12-28T07:39:58.199Z,95753.00
2023-12-28T07:40:58.002Z,95756.00
2023-12-28T07:41:57.841Z,95755.00
2023-12-28T07:42:58.031Z,95755.00
2023-12-28T07:43:57.510Z,95755.00
2023-12-28T07:44:57.338Z,95754.00
2023-12-28T07:45:57.269Z,95752.00
2023-12-28T07:46:56.993Z,95753.00
2023-12-28T07:47:57.211Z,95752.00
2023-12-28T07:48:56.774Z,95751.00
2023-12-28T07:49:56.546Z,95751.00
2023-12-28T07:50:56.361Z,95753.00
2023-12-28T07:51:55.233Z,95754.00
2023-12-28T07:52:56.029Z,95757.00
2023-12-28T07:53:55.860Z,95756.00
2023-12-28T07:54:55.702Z,95757.00
2023-12-28T07:55:55.519Z,95757.00
2023-12-28T07:56:55.337Z,95758.00
2023-12-28T07:57:55.275Z,95757.00
2023-12-28T07:58:55.020Z,95758.00
2023-12-28T07:59:54.870Z,95755.00
2023-12-28T08:00:54.712Z,95752.00
2023-12-28T08:01:54.529Z,95753.00
2023-12-28T08:02:54.375Z,95752.00
2023-12-28T08:03:54.301Z,95751.00
2023-12-28T08:04:54.069Z,95753.00
2023-12-28T08:05:53.907Z,95750.00
2023-12-28T08:06:53.773Z,95748.00
2023-12-28T08:07:53.547Z,95747.00
2023-12-28T08:08:53.392Z,95745.00
2023-12-28T08:09:53.272Z,95743.00
2023-12-28T08:10:53.061Z,95746.00
2023-12-28T08:11:52.950Z,95747.00
2023-12-28T08:12:52.832Z,95747.00
2023-12-28T08:13:52.634Z,95746.00
2023-12-28T08:14:52.469Z,95743.00
2023-12-28T08:15:52.473Z,95742.00
2023-12-28T08:16:52.120Z,95742.00
2023-12-28T08:17:52.033Z,95740.00
2023-12-28T08:18:51.964Z,95744.00
2023-12-28T08:19:50.911Z,95742.00
2023-12-28T08:20:51.480Z,95740.00
2023-12-28T08:21:51.503Z,95738.00
2023-12-28T08:23:01.402Z,95738.00
2023-12-28T08:23:50.971Z,95735.00
2023-12-28T08:24:50.859Z,95736.00
2023-12-28T08:25:50.650Z,95740.00
2023-12-28T08:26:50.473Z,95740.00
2023-12-28T08:27:50.384Z,95740.00
2023-12-28T08:28:50.148Z,95739.00
2023-12-28T08:29:49.984Z,95739.00
2023-12-28T08:30:49.890Z,95738.00
2023-12-28T08:31:49.739Z,95737.00
2023-12-28T08:32:49.628Z,95734.00
2023-12-28T08:33:49.385Z,95736.00
2023-12-28T08:34:49.375Z,95734.00
2023-12-28T08:35:48.998Z,95735.00
2023-12-28T08:36:48.956Z,95734.00
2023-12-28T08:37:48.627Z,95734.00
2023-12-28T08:38:48.487Z,95736.00
2023-12-28T08:39:48.334Z,95738.00
2023-12-28T08:40:48.163Z,95735.00
2023-12-28T08:41:47.995Z,95737.00
2023-12-28T08:42:47.819Z,95739.00
2023-12-28T08:43:47.636Z,95736.00
2023-12-28T08:44:49.551Z,95737.00
2023-12-28T08:45:47.334Z,95736.00
2023-12-28T08:46:46.149Z,95735.00
2023-12-28T08:47:46.978Z,95736.00
2023-12-28T08:48:46.896Z,95737.00
2023-12-28T08:49:45.702Z,95738.00
2023-12-28T08:50:46.485Z,95736.00
2023-12-28T08:51:46.382Z,95735.00
2023-12-28T08:52:46.143Z,95734.00
2023-12-28T08:53:45.994Z,95734.00
2023-12-28T08:54:45.940Z,95734.00
2023-12-28T08:55:45.679Z,95731.00
2023-12-28T08:56:46.971Z,95730.00
2023-12-28T08:57:45.400Z,95729.00
2023-12-28T08:58:45.158Z,95727.00
2023-12-28T08:59:44.997Z,95729.00
2023-12-28T09:00:44.902Z,95729.00
2023-12-28T09:01:44.785Z,95727.00
2023-12-28T09:02:44.587Z,95730.00
2023-12-28T09:03:44.496Z,95730.00
2023-12-28T09:04:44.208Z,95731.00
2023-12-28T09:05:44.015Z,95732.00
2023-12-28T09:06:44.005Z,95734.00
2023-12-28T09:07:43.654Z,95731.00
2023-12-28T09:08:42.521Z,95731.00
2023-12-28T09:09:43.453Z,95733.00
2023-12-28T09:10:43.200Z,95732.00
2023-12-28T09:11:43.076Z,95731.00
2023-12-28T09:12:42.898Z,95733.00
2023-12-28T09:13:42.673Z,95732.00
2023-12-28T09:14:42.501Z,95734.00
2023-12-28T09:15:42.368Z,95734.00
2023-12-28T09:16:42.159Z,95734.00
2023-12-28T09:17:43.117Z,95736.00
2023-12-28T09:18:42.139Z,95734.00
2023-12-28T09:19:40.845Z,95734.00
2023-12-28T09:20:41.542Z,95731.00
2023-12-28T09:21:41.436Z,95730.00
2023-12-28T09:22:41.204Z,95731.00
2023-12-28T09:23:41.037Z,95733.00
2023-12-28T09:24:40.920Z,95732.00
2023-12-28T09:25:40.713Z,95731.00
2023-12-28T09:26:40.566Z,95727.00
2023-12-28T09:27:40.583Z,95726.00
2023-12-28T09:28:40.213Z,95726.00
2023-12-28T09:29:40.091Z,95726.00
2023-12-28T09:30:39.989Z,95724.00
2023-12-28T09:31:39.910Z,95724.00
2023-12-28T09:32:40.665Z,95724.00
2023-12-28T09:33:39.504Z,95724.00
2023-12-28T09:34:39.360Z,95723.00
2023-12-28T09:35:39.072Z,95725.00
2023-12-28T09:36:38.946Z,95725.00
2023-12-28T09:37:38.751Z,95725.00
2023-12-28T09:38:38.585Z,95723.00
2023-12-28T09:39:38.471Z,95719.00
2023-12-28T09:40:38.267Z,95719.00
2023-12-28T09:41:38.092Z,95715.00
2023-12-28T09:42:38.024Z,95715.00
2023-12-28T09:43:37.799Z,95711.00
2023-12-28T09:44:37.620Z,95708.00
2023-12-28T09:45:37.501Z,95704.00
2023-12-28T09:46:37.287Z,95702.00
2023-12-28T09:47:37.113Z,95699.00
2023-12-28T09:48:37.071Z,95696.00
2023-12-28T09:49:36.853Z,95695.00
2023-12-28T09:50:36.621Z,95691.00
2023-12-28T09:51:36.547Z,95691.00
2023-12-28T09:52:36.286Z,95688.00
2023-12-28T09:53:36.124Z,95687.00
2023-12-28T09:54:36.031Z,95685.00
2023-12-28T09:55:35.793Z,95684.00
2023-12-28T09:56:35.624Z,95684.00
2023-12-28T09:57:35.592Z,95681.00
2023-12-28T09:58:35.376Z,95681.00
2023-12-28T09:59:35.137Z,95681.00
2023-12-28T10:00:34.985Z,95681.00
2023-12-28T10:01:34.847Z,95682.00
2023-12-28T10:02:36.977Z,95679.00
2023-12-28T10:03:34.516Z,95680.00
2023-12-28T10:04:34.379Z,95679.00
2023-12-28T10:05:34.191Z,95680.00
2023-12-28T10:06:34.296Z,95674.00
2023-12-28T10:07:32.779Z,95678.00
2023-12-28T10:08:32.615Z,95673.00
2023-12-28T10:09:33.482Z,95672.00
2023-12-28T10:10:33.279Z,95670.00
2023-12-28T10:11:33.111Z,95667.00
2023-12-28T10:12:32.993Z,95665.00
2023-12-28T10:13:31.789Z,95661.00
2023-12-28T10:14:32.639Z,95662.00
2023-12-28T10:15:32.470Z,95662.00
2023-12-28T10:16:32.306Z,95661.00
2023-12-28T10:17:32.131Z,95658.00
2023-12-28T10:18:32.080Z,95656.00
2023-12-28T10:19:32.916Z,95655.00
2023-12-28T10:20:31.597Z,95651.00
2023-12-28T10:21:31.438Z,95651.00
2023-12-28T10:22:31.272Z,95652.00
2023-12-28T10:23:31.099Z,95648.00
2023-12-28T10:24:30.979Z,95648.00
2023-12-28T10:25:30.872Z,95644.00
2023-12-28T10:26:30.651Z,95645.00
2023-12-28T10:27:30.458Z,95641.00
2023-12-28T10:28:30.272Z,95639.00
2023-12-28T10:29:30.081Z,95634.00
2023-12-28T10:30:29.999Z,95631.00
2023-12-28T10:31:29.911Z,95627.00
2023-12-28T10:32:29.679Z,95623.00
2023-12-28T10:33:29.543Z,95622.00
2023-12-28T10:34:29.327Z,95622.00
2023-12-28T10:35:29.105Z,95621.00
2023-12-28T10:36:28.983Z,95618.00
2023-12-28T10:37:28.720Z,95615.00
2023-12-28T10:38:28.583Z,95612.00
2023-12-28T10:39:28.510Z,95612.00
2023-12-28T10:40:28.300Z,95609.00
2023-12-28T10:41:28.046Z,95609.00
2023-12-28T10:42:27.898Z,95610.00
2023-12-28T10:43:27.709Z,95611.00
2023-12-28T10:44:27.548Z,95611.00
2023-12-28T10:45:27.488Z,95610.00
2023-12-28T10:46:26.274Z,95610.00
2023-12-28T10:47:27.077Z,95607.00
2023-12-28T10:48:27.012Z,95606.00
2023-12-28T10:49:27.523Z,95605.00
2023-12-28T10:50:26.636Z,95607.00
2023-12-28T10:51:26.433Z,95604.00
2023-12-28T10:52:26.231Z,95603.00
2023-12-28T10:53:26.059Z,95601.00
2023-12-28T10:54:24.967Z,95603.00
2023-12-28T10:55:25.761Z,95600.00
2023-12-28T10:56:25.566Z,95600.00
2023-12-28T10:57:25.431Z,95600.00
2023-12-28T10:58:25.245Z,95601.00
2023-12-28T10:59:25.076Z,95600.00
2023-12-28T11:00:24.966Z,95599.00
2023-12-28T11:01:24.845Z,95593.00
2023-12-28T11:02:24.605Z,95589.00
2023-12-28T11:03:24.450Z,95582.00
2023-12-28T11:04:24.370Z,95580.00
2023-12-28T11:05:24.358Z,95578.00
2023-12-28T11:06:23.971Z,95575.00
2023-12-28T11:07:23.803Z,95572.00
2023-12-28T11:08:22.610Z,95566.00
2023-12-28T11:09:23.517Z,95560.00
2023-12-28T11:10:23.279Z,95555.00
2023-12-28T11:11:23.118Z,95554.00
2023-12-28T11:12:22.964Z,95552.00
2023-12-28T11:13:21.797Z,95554.00
2023-12-28T11:14:22.631Z,95556.00
2023-12-28T11:15:22.592Z,95557.00
2023-12-28T11:16:22.286Z,95557.00
2023-12-28T11:17:22.201Z,95558.00
2023-12-28T11:18:22.218Z,95556.00
2023-12-28T11:19:21.928Z,95554.00
2023-12-28T11:20:21.636Z,95552.00
2023-12-28T11:21:21.517Z,95549.00
2023-12-28T11:22:21.306Z,95547.00
2023-12-28T11:23:21.157Z,95542.00
2023-12-28T11:24:21.059Z,95538.00
2023-12-28T11:25:20.845Z,95534.00
2023-12-28T11:26:20.678Z,95530.00
2023-12-28T11:27:20.573Z,95525.00
2023-12-28T11:28:20.323Z,95522.00
2023-12-28T11:29:20.168Z,95521.00
2023-12-28T11:30:20.113Z,95523.00
2023-12-28T11:31:19.878Z,95526.00
2023-12-28T11:32:19.677Z,95528.00
2023-12-28T11:33:19.593Z,95528.00
2023-12-28T11:34:19.524Z,95528.00
2023-12-28T11:35:19.224Z,95529.00
2023-12-28T11:36:18.999Z,95531.00
2023-12-28T11:37:18.848Z,95530.00
2023-12-28T11:38:18.669Z,95527.00
2023-12-28T11:39:18.532Z,95522.00
2023-12-28T11:40:18.364Z,95518.00
2023-12-28T11:41:18.161Z,95516.00
2023-12-28T11:42:18.038Z,95516.00
2023-12-28T11:43:17.833Z,95514.00
2023-12-28T11:44:17.660Z,95513.00
2023-12-28T11:45:17.497Z,95514.00
2023-12-28T11:46:16.330Z,95512.00
2023-12-28T11:47:17.188Z,95510.00
2023-12-28T11:48:17.069Z,95506.00
2023-12-28T11:49:16.916Z,95503.00
2023-12-28T11:50:16.722Z,95503.00
2023-12-28T11:51:16.585Z,95502.00
2023-12-28T11:52:16.356Z,95502.00
2023-12-28T11:53:16.189Z,95501.00
2023-12-28T11:54:16.015Z,95500.00
2023-12-28T11:55:15.863Z,95500.00
2023-12-28T11:56:15.681Z,95498.00
2023-12-28T11:57:15.522Z,95496.00
2023-12-28T11:58:15.815Z,95496.00
2023-12-28T11:59:15.151Z,95498.00
2023-12-28T12:00:15.048Z,95497.00
2023-12-28T12:01:14.922Z,95498.00
2023-12-28T12:02:14.666Z,95497.00
2023-12-28T12:03:14.495Z,95497.00
2023-12-28T12:04:14.441Z,95494.00
2023-12-28T12:05:14.169Z,95492.00
2023-12-28T12:06:14.180Z,95491.00
2023-12-28T12:07:13.975Z,95491.00
2023-12-28T12:08:13.640Z,95490.00
2023-12-28T12:09:13.475Z,95488.00
2023-12-28T12:10:13.322Z,95485.00
2023-12-28T12:11:13.150Z,95481.00
2023-12-28T12:12:13.002Z,95477.00
2023-12-28T12:13:12.891Z,95474.00
2023-12-28T12:14:12.647Z,95473.00
2023-12-28T12:15:12.501Z,95470.00
2023-12-28T12:16:12.362Z,95469.00
2023-12-28T12:17:12.141Z,95467.00
2023-12-28T12:18:12.030Z,95467.00
2023-12-28T12:19:11.896Z,95468.00
2023-12-28T12:20:11.640Z,95468.00
2023-12-28T12:21:11.470Z,95468.00
2023-12-28T12:22:10.319Z,95468.00
2023-12-28T12:23:11.110Z,95468.00
2023-12-28T12:24:10.935Z,95469.00
2023-12-28T12:25:10.803Z,95473.00
2023-12-28T12:26:11.657Z,95472.00
2023-12-28T12:27:10.450Z,95473.00
2023-12-28T12:28:10.328Z,95474.00
2023-12-28T12:29:10.104Z,95470.00
2023-12-28T12:30:10.055Z,95470.00
2023-12-28T12:31:09.862Z,95468.00